SBFZ/FOR METAR and TAF weather

Enter ICAO airport designator
Station Type Date Time Source
SBFZ METAR 2020/07/15 01:00 UTC NOAA

SBFZ 150100Z 11004KT CAVOK 25/21 Q1015


Station Type Date Time Source
SBFZ Decoded METAR 2020/07/15 01:00 UTC NOAA

Fortaleza / pinto Martins , Brazil (SBFZ) 03-47S 038-32W 25M
Jul 14, 2020 - 09:00 PM EDT / 2020.07.15 0100 UTC
Wind: from the ESE (110 degrees) at 5 MPH (4 KT):0
Visibility: greater than 7 mile(s):0
Temperature: 77 F (25 C)
Dew Point: 69 F (21 C)
Relative Humidity: 78%
Pressure (altimeter): 29.97 in. Hg (1015 hPa)
ob: SBFZ 150100Z 11004KT CAVOK 25/21 Q1015
cycle: 1

Station Type Date Time Source
SBFZ TAF 2020/07/15 00:00 UTC NOAA

TAF SBFZ 142100Z 1500/1524 09007KT CAVOK TN23/1509Z TX31/1516Z
BECMG 1503/1505 16007KT
BECMG 1513/1515 09015KT
BECMG 1519/1521 09007KT
RMK PDY

Example: see airport list